Terminal Aerodrome Forecast
Issued by NWS Chicago, IL

Home | Current Version | Previous Version | Text Only | Print | Product List | Glossary Off
Versions: 1 2 3 4 5 6 7 8 9 10 11 12 13 14 15 16 17 18 19 20 21 22 23 24 25 26 27 28 29 30 31 32 33

000
FTUS43 KLOT 040900 AAA
TAFRFD
TAF AMD
KRFD 040900Z 0409/0506 31011KT P6SM SCT120 BKN250
     FM041400 30012G20KT P6SM SCT025 BKN150
     FM041800 31015G25KT P6SM SCT020 BKN100
     FM050100 32010KT P6SM BKN200=

USA.gov is the U.S. government's official web portal to all federal, state and local government web resources and services.